createdAt,value
2023-03-22T00:00:38.016Z,49.22
2023-03-22T00:02:40.522Z,50.97
2023-03-22T00:04:43.657Z,49.75
2023-03-22T00:06:46.430Z,49.15
2023-03-22T00:08:53.885Z,50.13
2023-03-22T00:10:56.660Z,49.15
2023-03-22T00:12:59.482Z,47.38
2023-03-22T00:15:01.740Z,45.60
2023-03-22T00:17:04.946Z,46.25
2023-03-22T00:19:07.375Z,44.72
2023-03-22T00:21:15.704Z,46.58
2023-03-22T00:23:20.228Z,39.53
2023-03-22T00:25:23.510Z,34.40
2023-03-22T00:27:26.405Z,30.42
2023-03-22T00:29:29.433Z,43.72
2023-03-22T00:31:31.992Z,44.22
2023-03-22T00:33:35.115Z,43.47
2023-03-22T00:35:37.365Z,42.80
2023-03-22T00:37:39.892Z,36.90
2023-03-22T00:39:45.133Z,29.77
2023-03-22T00:41:48.239Z,27.75
2023-03-22T00:43:51.869Z,25.50
2023-03-22T00:45:54.558Z,41.13
2023-03-22T00:47:57.535Z,45.55
2023-03-22T00:50:00.158Z,43.65
2023-03-22T00:52:02.873Z,41.78
2023-03-22T00:54:06.029Z,41.55
2023-03-22T00:56:09.670Z,43.97
2023-03-22T00:58:19.880Z,34.63
2023-03-22T01:00:22.701Z,40.08
2023-03-22T01:02:29.925Z,43.95
2023-03-22T01:04:33.152Z,43.28
2023-03-22T01:06:36.075Z,36.33
2023-03-22T01:08:39.301Z,36.40
2023-03-22T01:10:43.076Z,37.38
2023-03-22T01:12:46.776Z,33.75
2023-03-22T01:14:49.358Z,34.25
2023-03-22T01:16:57.734Z,39.95
2023-03-22T01:19:00.469Z,38.72
2023-03-22T01:21:03.051Z,37.35
2023-03-22T01:23:05.833Z,39.67
2023-03-22T01:25:09.069Z,42.25
2023-03-22T01:27:11.710Z,42.50
2023-03-22T01:29:14.230Z,41.58
2023-03-22T01:31:16.799Z,40.30
2023-03-22T01:33:19.253Z,36.67
2023-03-22T01:35:21.817Z,38.17
2023-03-22T01:37:27.763Z,35.75
2023-03-22T01:39:32.072Z,32.75
2023-03-22T01:41:38.255Z,35.90
2023-03-22T01:44:07.053Z,36.92
2023-03-22T01:46:09.612Z,37.63
2023-03-22T01:48:36.214Z,35.10
2023-03-22T01:50:42.898Z,37.90
2023-03-22T01:52:45.745Z,33.20
2023-03-22T01:54:57.188Z,33.50
2023-03-22T01:57:14.851Z,30.05
2023-03-22T01:59:18.515Z,31.77
2023-03-22T02:01:35.284Z,35.28
2023-03-22T02:03:48.818Z,35.85
2023-03-22T02:05:51.960Z,36.78
2023-03-22T02:07:57.495Z,34.20
2023-03-22T02:10:02.605Z,33.88
2023-03-22T02:12:42.995Z,35.63
2023-03-22T02:15:25.924Z,37.50
2023-03-22T02:18:11.560Z,35.17
2023-03-22T02:20:24.878Z,34.67
2023-03-22T02:22:39.800Z,36.08
2023-03-22T02:25:28.902Z,38.70
2023-03-22T02:27:56.285Z,40.72
2023-03-22T02:30:13.390Z,42.50
2023-03-22T02:32:46.233Z,45.33
2023-03-22T02:35:21.622Z,40.40
2023-03-22T02:37:38.379Z,39.35
2023-03-22T02:39:54.236Z,40.75
2023-03-22T02:42:32.483Z,43.17
2023-03-22T02:44:46.350Z,48.20
2023-03-22T02:46:53.966Z,45.72
2023-03-22T02:48:58.740Z,48.97
2023-03-22T02:51:08.624Z,50.05
2023-03-22T02:53:22.956Z,54.15
2023-03-22T02:55:38.559Z,50.25
2023-03-22T02:57:48.368Z,54.75
2023-03-22T02:59:53.681Z,52.65
2023-03-22T03:01:59.553Z,49.90
2023-03-22T03:04:06.528Z,52.60
2023-03-22T03:06:13.638Z,49.67
2023-03-22T03:10:22.873Z,49.45
2023-03-22T03:12:28.553Z,56.90
2023-03-22T03:14:33.281Z,56.72
2023-03-22T03:16:37.018Z,54.75
2023-03-22T03:18:48.767Z,53.35
2023-03-22T03:21:25.336Z,53.10
2023-03-22T03:23:45.048Z,53.63
2023-03-22T03:25:47.394Z,57.33
2023-03-22T03:28:23.430Z,54.50
2023-03-22T03:30:41.215Z,52.80
2023-03-22T03:33:05.082Z,55.10
2023-03-22T03:35:34.038Z,55.72
2023-03-22T03:37:47.393Z,57.30
2023-03-22T03:40:03.125Z,57.55
2023-03-22T03:42:08.734Z,54.60
2023-03-22T03:44:13.066Z,55.60
2023-03-22T03:46:16.531Z,52.92
2023-03-22T03:48:22.355Z,52.65
2023-03-22T03:50:26.164Z,56.78
2023-03-22T03:52:29.838Z,53.25
2023-03-22T03:54:32.574Z,47.53
2023-03-22T03:56:35.225Z,51.72
2023-03-22T03:58:37.751Z,53.17
2023-03-22T04:00:40.561Z,53.03
2023-03-22T04:02:52.691Z,57.53
2023-03-22T04:05:15.677Z,53.75
2023-03-22T04:07:18.311Z,58.20
2023-03-22T04:09:21.179Z,58.17
2023-03-22T04:11:29.240Z,54.95
2023-03-22T04:13:35.379Z,55.85
2023-03-22T04:15:42.375Z,55.55
2023-03-22T04:17:49.101Z,60.40
2023-03-22T04:19:54.031Z,60.45
2023-03-22T04:21:56.223Z,57.72
2023-03-22T04:23:59.212Z,58.35
2023-03-22T04:26:06.420Z,59.85
2023-03-22T04:28:20.647Z,56.50
2023-03-22T04:30:24.933Z,57.08
2023-03-22T04:32:36.473Z,59.30
2023-03-22T04:34:39.619Z,56.45
2023-03-22T04:36:47.441Z,56.33
2023-03-22T04:38:59.704Z,51.38
2023-03-22T04:41:02.273Z,51.38
2023-03-22T04:43:13.347Z,56.17
2023-03-22T04:45:22.330Z,53.78
2023-03-22T04:47:31.076Z,53.88
2023-03-22T04:49:33.958Z,55.97
2023-03-22T04:51:36.566Z,54.80
2023-03-22T04:54:14.386Z,54.97
2023-03-22T04:56:19.521Z,53.47
2023-03-22T04:58:26.812Z,57.50
2023-03-22T05:00:30.564Z,54.60
2023-03-22T05:02:34.996Z,54.47
2023-03-22T05:04:37.227Z,55.63
2023-03-22T05:06:49.020Z,57.28
2023-03-22T05:09:08.546Z,51.42
2023-03-22T05:11:17.052Z,53.13
2023-03-22T05:13:28.430Z,53.88
2023-03-22T05:15:32.663Z,54.55
2023-03-22T05:17:36.494Z,52.90
2023-03-22T05:19:39.910Z,53.10
2023-03-22T05:21:44.468Z,54.72
2023-03-22T05:23:47.796Z,53.45
2023-03-22T05:25:53.511Z,51.70
2023-03-22T05:28:02.179Z,53.17
2023-03-22T05:30:33.045Z,52.05
2023-03-22T05:32:46.067Z,53.75
2023-03-22T05:34:48.706Z,54.00
2023-03-22T05:37:04.024Z,54.67
2023-03-22T05:39:19.533Z,50.97
2023-03-22T05:41:22.826Z,52.17
2023-03-22T05:43:25.933Z,53.10
2023-03-22T05:45:28.783Z,49.92
2023-03-22T05:47:49.219Z,52.88
2023-03-22T05:49:56.230Z,47.33
2023-03-22T05:51:59.994Z,51.45
2023-03-22T05:54:13.140Z,51.92
2023-03-22T05:56:24.920Z,50.80
2023-03-22T05:58:36.484Z,50.42
2023-03-22T06:00:40.219Z,48.92
2023-03-22T06:03:22.337Z,50.42
2023-03-22T06:05:41.555Z,47.92
2023-03-22T06:07:45.254Z,50.15
2023-03-22T06:09:51.469Z,44.55
2023-03-22T06:11:59.154Z,47.92
2023-03-22T06:14:02.200Z,52.08
2023-03-22T06:16:18.095Z,50.40
2023-03-22T06:18:20.611Z,51.13
2023-03-22T06:20:31.424Z,51.75
2023-03-22T06:22:39.405Z,49.47
2023-03-22T06:24:42.690Z,49.50
2023-03-22T06:26:49.039Z,48.60
2023-03-22T06:28:51.662Z,51.20
2023-03-22T06:30:54.234Z,48.00
2023-03-22T06:33:09.873Z,47.78
2023-03-22T06:35:16.298Z,49.90
2023-03-22T06:37:21.781Z,49.22
2023-03-22T06:39:25.813Z,50.85
2023-03-22T06:41:28.931Z,48.40
2023-03-22T06:43:31.610Z,50.25
2023-03-22T06:45:49.120Z,48.97
2023-03-22T06:47:57.012Z,49.42
2023-03-22T06:50:22.457Z,50.75
2023-03-22T06:54:37.890Z,43.75
2023-03-22T06:56:40.806Z,44.42
2023-03-22T06:58:43.530Z,43.90
2023-03-22T07:00:46.183Z,44.60
2023-03-22T07:02:52.570Z,41.55
2023-03-22T07:05:04.139Z,43.53
2023-03-22T07:07:07.006Z,42.70
2023-03-22T07:09:10.879Z,44.40
2023-03-22T07:11:13.423Z,41.25
2023-03-22T07:13:18.087Z,39.17
2023-03-22T07:15:25.155Z,42.17
2023-03-22T07:17:36.997Z,39.70
2023-03-22T07:19:40.834Z,40.90
2023-03-22T07:21:44.865Z,39.58
2023-03-22T07:23:48.958Z,40.78
2023-03-22T07:25:56.210Z,38.53
2023-03-22T07:28:03.471Z,37.10
2023-03-22T07:30:09.748Z,37.45
2023-03-22T07:32:17.238Z,37.55
2023-03-22T07:34:37.746Z,37.70
2023-03-22T07:36:48.213Z,38.17
2023-03-22T07:38:51.806Z,37.55
2023-03-22T07:41:00.713Z,35.03
2023-03-22T07:43:16.826Z,35.08
2023-03-22T07:45:42.787Z,30.17
2023-03-22T07:48:11.555Z,33.00
2023-03-22T07:50:26.278Z,34.22
2023-03-22T07:52:32.370Z,33.38
2023-03-22T07:54:35.224Z,34.90
2023-03-22T07:56:42.343Z,34.40
2023-03-22T07:58:44.777Z,31.48
2023-03-22T08:00:50.120Z,30.42
2023-03-22T08:03:16.074Z,32.42
2023-03-22T08:05:33.995Z,34.30
2023-03-22T08:07:38.268Z,31.48
2023-03-22T08:09:40.963Z,30.60
2023-03-22T08:11:43.536Z,31.00
2023-03-22T08:13:46.420Z,30.33
2023-03-22T08:15:49.937Z,32.60
2023-03-22T08:18:00.890Z,29.88
2023-03-22T08:20:21.528Z,29.95
2023-03-22T08:22:30.091Z,26.92
2023-03-22T08:24:51.194Z,28.90
2023-03-22T08:27:01.978Z,29.83
2023-03-22T08:29:14.759Z,29.13
2023-03-22T08:31:22.759Z,27.52
2023-03-22T08:33:26.343Z,28.15
2023-03-22T08:35:29.138Z,27.63
2023-03-22T08:37:31.653Z,30.55
2023-03-22T08:39:38.007Z,25.92
2023-03-22T08:42:04.397Z,27.15
2023-03-22T08:44:07.249Z,27.92
2023-03-22T08:46:11.108Z,27.50
2023-03-22T08:48:14.403Z,27.60
2023-03-22T08:50:38.022Z,26.75
2023-03-22T08:52:47.290Z,26.63
2023-03-22T08:54:57.278Z,28.98
2023-03-22T08:57:18.313Z,29.70
2023-03-22T08:59:44.159Z,29.33
2023-03-22T09:01:58.020Z,27.90
2023-03-22T09:04:02.581Z,26.48
2023-03-22T09:06:05.644Z,28.02
2023-03-22T09:08:19.101Z,27.60
2023-03-22T09:10:24.867Z,26.20
2023-03-22T09:12:30.156Z,26.25
2023-03-22T09:14:33.284Z,25.63
2023-03-22T09:16:36.151Z,25.67
2023-03-22T09:18:40.193Z,22.27
2023-03-22T09:20:50.848Z,19.33
2023-03-22T09:22:57.712Z,18.42
2023-03-22T09:25:00.545Z,16.33
2023-03-22T09:27:03.638Z,16.23
2023-03-22T09:29:06.359Z,15.57
2023-03-22T09:31:10.627Z,17.30
2023-03-22T09:33:15.541Z,15.70
2023-03-22T09:35:20.646Z,15.88
2023-03-22T09:37:30.770Z,15.48
2023-03-22T09:39:38.671Z,16.45
2023-03-22T09:41:49.585Z,13.57
2023-03-22T09:43:57.525Z,12.20
2023-03-22T09:46:04.042Z,13.13
2023-03-22T09:48:17.254Z,13.15
2023-03-22T09:50:23.264Z,13.75
2023-03-22T09:52:25.851Z,14.23
2023-03-22T09:54:55.298Z,13.30
2023-03-22T09:57:05.619Z,13.82
2023-03-22T09:59:21.874Z,12.27
2023-03-22T10:01:52.553Z,13.85
2023-03-22T10:04:26.720Z,14.00
2023-03-22T10:06:31.060Z,12.57
2023-03-22T10:09:06.116Z,13.85
2023-03-22T10:11:21.058Z,12.32
2023-03-22T10:13:37.332Z,12.52
2023-03-22T10:15:45.142Z,13.23
2023-03-22T10:17:52.626Z,11.65
2023-03-22T10:20:13.895Z,12.88
2023-03-22T10:22:19.356Z,12.40
2023-03-22T10:24:31.800Z,11.93
2023-03-22T10:26:39.027Z,11.23
2023-03-22T10:28:45.594Z,11.93
2023-03-22T10:30:54.953Z,10.63
2023-03-22T10:33:04.829Z,11.15
2023-03-22T10:35:09.387Z,9.98
2023-03-22T10:37:32.444Z,11.18
2023-03-22T10:39:39.862Z,10.23
2023-03-22T10:41:43.941Z,9.65
2023-03-22T10:43:50.833Z,9.05
2023-03-22T10:45:54.664Z,9.40
2023-03-22T10:48:03.090Z,9.93
2023-03-22T10:50:12.380Z,10.13
2023-03-22T10:53:06.492Z,9.73
2023-03-22T10:57:12.857Z,8.13
2023-03-22T10:59:51.509Z,8.00
2023-03-22T11:01:54.595Z,7.88
2023-03-22T11:04:11.572Z,8.82
2023-03-22T11:06:21.284Z,9.82
2023-03-22T11:08:23.597Z,8.98
2023-03-22T11:10:33.363Z,11.07
2023-03-22T11:12:40.093Z,11.23
2023-03-22T11:14:44.890Z,9.00
2023-03-22T11:16:56.020Z,6.50
2023-03-22T11:19:03.352Z,6.03
2023-03-22T11:21:11.889Z,5.78
2023-03-22T11:23:18.520Z,6.25
2023-03-22T11:25:22.455Z,6.03
2023-03-22T11:27:30.686Z,5.38
2023-03-22T11:29:44.093Z,5.55
2023-03-22T11:31:56.466Z,6.15
2023-03-22T11:34:01.299Z,5.53
2023-03-22T11:36:16.619Z,5.90
2023-03-22T11:38:38.610Z,5.57
2023-03-22T11:40:54.728Z,5.13
2023-03-22T11:43:11.246Z,6.53
2023-03-22T11:45:24.452Z,5.90
2023-03-22T11:47:33.254Z,6.88
2023-03-22T11:49:48.322Z,5.47
2023-03-22T11:51:52.614Z,6.97
2023-03-22T11:54:24.282Z,5.80
2023-03-22T11:56:30.544Z,4.97
2023-03-22T11:58:38.673Z,5.45
2023-03-22T12:00:43.550Z,5.85
2023-03-22T12:03:14.077Z,6.22
2023-03-22T12:05:27.697Z,6.15
2023-03-22T12:07:33.192Z,5.00
2023-03-22T12:09:52.382Z,5.57
2023-03-22T12:12:01.632Z,5.32
2023-03-22T12:14:17.607Z,4.97
2023-03-22T12:16:29.575Z,4.57
2023-03-22T12:18:45.372Z,4.70
2023-03-22T12:21:09.977Z,5.03
2023-03-22T12:23:19.366Z,5.93
2023-03-22T12:25:27.467Z,4.88
2023-03-22T12:27:35.389Z,5.40
2023-03-22T12:29:44.919Z,4.78
2023-03-22T12:31:56.387Z,5.43
2023-03-22T12:34:05.629Z,4.07
2023-03-22T12:36:12.472Z,4.25
2023-03-22T12:38:31.280Z,3.83
2023-03-22T12:40:41.089Z,4.22
2023-03-22T12:42:56.622Z,8.27
2023-03-22T12:45:18.939Z,5.90
2023-03-22T12:47:42.156Z,4.32
2023-03-22T12:50:06.347Z,4.00
2023-03-22T12:52:17.904Z,3.90
2023-03-22T12:54:25.975Z,4.45
2023-03-22T12:56:32.670Z,4.18
2023-03-22T12:58:35.194Z,4.72
2023-03-22T13:00:50.181Z,4.95
2023-03-22T13:03:00.327Z,4.55
2023-03-22T13:05:07.229Z,4.45
2023-03-22T13:07:09.821Z,5.65
2023-03-22T13:09:19.212Z,6.72
2023-03-22T13:11:24.824Z,44.63
2023-03-22T13:13:28.225Z,9.57
2023-03-22T13:15:42.295Z,4.05
2023-03-22T13:17:45.533Z,3.72
2023-03-22T13:20:06.755Z,4.00
2023-03-22T13:22:19.652Z,3.70
2023-03-22T13:24:23.489Z,3.80
2023-03-22T13:26:47.560Z,4.82
2023-03-22T13:31:04.428Z,3.90
2023-03-22T13:33:10.100Z,3.78
2023-03-22T13:35:28.643Z,3.55
2023-03-22T13:38:07.990Z,3.80
2023-03-22T13:40:32.570Z,4.13
2023-03-22T13:42:42.082Z,3.53
2023-03-22T13:44:47.176Z,3.53
2023-03-22T13:46:57.502Z,3.58
2023-03-22T13:49:03.246Z,3.92
2023-03-22T13:51:32.308Z,4.38
2023-03-22T13:53:37.299Z,6.03
2023-03-22T13:55:52.066Z,5.88
2023-03-22T13:57:59.464Z,6.20
2023-03-22T14:00:21.009Z,5.75
2023-03-22T14:02:36.293Z,5.70
2023-03-22T14:04:45.014Z,7.93
2023-03-22T14:06:56.376Z,7.82
2023-03-22T14:09:13.752Z,6.97
2023-03-22T14:11:44.623Z,6.55
2023-03-22T14:14:00.780Z,5.65
2023-03-22T14:16:10.140Z,5.72
2023-03-22T14:18:26.087Z,6.45
2023-03-22T14:20:35.209Z,5.78
